Share

Sheep Mountain, AK

AKDOT Glenn Highway @ Gunsight Mountain MP 11 (MGMTA2) Elev 3234 ft | 61.83 °N, 147.41 °W | Change Station

Current weather conditions updated 46 minutes ago

Partly Cloudy
Partly Cloudy
29 °F
Feels Like 21 °F
N
9
Wind Variable Wind from NE
Gusts 13.0 mph
Sunrise 6:13 AM
Sunset 9:26 PM
Moon Waning Gibbous

Today is forecast to be Cooler than yesterday.

Pressure 29.56 in
Visibility 10.0 miles
Clouds Mostly Cloudy 22000 ft
Windchill 21 °F
Dew Point 21 °F
Humidity 71%
Rainfall 0.00 in
Snow Depth Not available.
UV out of 16
Pollen Not available.
Air Quality Not available.
Flu Activity Sporadic
METAR PAAQ 191753Z 00000KT 10SM BKN220 04/M06 A2955 RMK AO2 SLP009 T00391056 10039 21006 58014

More Conditions Fewer Conditions

Pressure 29.56 in
Visibility 10.0 miles
Clouds Mostly Cloudy 22000 ft
Windchill 21 °F
Dew Point 21 °F
Humidity 71%
Rainfall 0.00 in
Snow Depth Not available.
UV out of 16
Pollen Not available.
Air Quality Not available.
Flu Activity Sporadic
METAR PAAQ 191753Z 00000KT 10SM BKN220 04/M06 A2955 RMK AO2 SLP009 T00391056 10039 21006 58014

More Conditions Fewer Conditions

10-Day Weather Forecast

Almanac

Astronomy

Apr. 19, 2014 Rise Set
Actual Time 6:13 AM AKDT 9:26 PM AKDT
Civil Twilight 5:22 AM AKDT 10:18 PM AKDT
Nautical Twilight 4:08 AM AKDT 11:33 PM AKDT
Astronomical Twilight 2:21 AM AKDT 1:16 AM AKDT
Moon 2:03 AM AKDT 8:57 AM AKDT
Length of Visible Light 16h 55m
Length of Day
15h 12m
Tomorrow will be 5m 52s longer.
Waning Gibbous, 78% of the Moon is Illuminated
Today
Waning Gibbous
Apr 22
Last Quarter
Apr 29
New
May 6
First Quarter
May 14
Full

Today's Extremes

State Highs State Lows

Community

  • Piriapolis
    Piriapolis
  • A Glorious Morning
    A Glorious Morning
  • Tender Rays Of Hope
    Tender Rays Of Hope
  • Bleeding Hearts
    Bleeding Hearts
  • Sunset Silhouettes
    Sunset Silhouettes

WunderPhotos

Upload Photos

1,702,840 photos uploaded!

WunderBlogs® & News

Nearby

Snow Depth

Station Depth Elevation
Moraine 9 in 2100 ft
Upper Tsaina River 54 in 1750 ft
Indian Pass 48 in 2300 ft
Susitna Valley High 85 in 375 ft
Point Mackenzie 10 in 200 ft

Coastal Water Temperatures

Place Temperature
No Stations Reporting

Earthquake Activity

City Distance Mag. Time & Date
No recent earthquake activity has been reported nearby.
Minimum magnitude displayed is 2.5.

Nearby Weather Stations

Station Location Temp. Windchill Dew Point Humidity Wind Precip. Elev Updated Type
AKDOT Glenn Highway @ Gunsight Mountain , Tatitlek, AK 29 °F 21 °F 21 °F 71% NE  at  9 mph 0.00 in / hr 3234 ft 10:00 AM AKDT MADIS

Show More Stations Show Fewer Stations

What do you think?

We're not finished. Please let us know what you like, what you don't like, and what you are still missing.